Main page
METAR-TAF:

METAR-TAF

Airports :

Balıkesir Koca Seyit Airport

Edremit, Turkey

latitude: 39-33-16N, longitude: 27-00-49E, elevation: 15 m

Current weather observation

The report was made 1 hour and 51 minutes ago, at 16:50 UTC
Wind 17 kt from the East
Temperature 13°C
Humidity 54%
Pressure 1019 hPa
Visibility 10 km or more
no clouds below 1500 m and no cumulonimbus

METAR: LTFD 231650Z 08017KT CAVOK 13/04 Q1019

Time: 21:41 (18:41 UTC)

Forecast

The report was made 2 hours and 1 minutes ago, at 16:40 UTC
Forecast valid from 23 at 18 UTC to 24 at 03 UTC
Wind 25 kt from the East/Northeast
Visibility 10 km or more
no clouds below 1500 m and no cumulonimbus
Becoming
from 23 at 18 UTC to 23 at 21 UTC
Wind 15 kt from the East/Northeast

TAF: LTFD 231640Z 2318/2403 07025KT CAVOK BECMG 2318/2321 07015KT

Weather observations and forecasts of more than 4000 airports (METAR and TAF reports).

The available stations are represented by yellow and red dots on the map.

Hover mouse over dot to see the name of the station.

Then click to see weather observations and forecasts.

To change the map : click on the green buttons with a black cross to zoom in, on the green button with a dash to zoom out, or on the green arrows for adjacent maps.


METAR-TAF: